Terminal Aerodrome Forecast
Issued by NWS

Home | Current Version | Previous Version | Text Only | Print | Product List | Glossary On
Versions: 1 2 3 4 5 6 7 8 9 10 11 12 13 14 15 16 17 18 19 20
000
FTUS43 KGRR 041700 AAA
TAFMKG
TAF AMD
KMKG 041756Z 0418/0518 27009KT P6SM SCT005 OVC200
     FM042000 35008KT P6SM SCT050 BKN200
     FM050800 06006KT P6SM OVC100
     FM051100 09010KT 5SM BR OVC060
     FM051400 09010KT 5SM BR OVC025=

USA.gov is the U.S. government's official web portal to all federal, state and local government web resources and services.